sensor_id;sensor_type;location;lat;lon;timestamp;P1;durP1;ratioP1;P2;durP2;ratioP2
24729;SDS011;12832;52.392;13.066;2023-10-31T00:01:57;0.52;;;0.52;;
24729;SDS011;12832;52.392;13.066;2023-10-31T00:04:24;0.65;;;0.55;;
24729;SDS011;12832;52.392;13.066;2023-10-31T00:06:50;0.80;;;0.73;;
24729;SDS011;12832;52.392;13.066;2023-10-31T00:09:17;0.47;;;0.45;;
24729;SDS011;12832;52.392;13.066;2023-10-31T00:11:44;0.90;;;0.40;;
24729;SDS011;12832;52.392;13.066;2023-10-31T00:14:10;0.52;;;0.40;;
24729;SDS011;12832;52.392;13.066;2023-10-31T00:16:56;0.90;;;0.70;;
24729;SDS011;12832;52.392;13.066;2023-10-31T00:19:22;1.13;;;0.50;;
24729;SDS011;12832;52.392;13.066;2023-10-31T00:21:49;0.50;;;0.50;;
24729;SDS011;12832;52.392;13.066;2023-10-31T00:24:16;0.50;;;0.50;;
24729;SDS011;12832;52.392;13.066;2023-10-31T00:26:42;0.85;;;0.60;;
24729;SDS011;12832;52.392;13.066;2023-10-31T00:29:09;0.90;;;0.60;;
24729;SDS011;12832;52.392;13.066;2023-10-31T00:31:35;0.60;;;0.60;;
24729;SDS011;12832;52.392;13.066;2023-10-31T00:34:06;0.50;;;0.40;;
24729;SDS011;12832;52.392;13.066;2023-10-31T00:36:34;0.52;;;0.52;;
24729;SDS011;12832;52.392;13.066;2023-10-31T00:39:00;1.17;;;0.60;;
24729;SDS011;12832;52.392;13.066;2023-10-31T00:41:27;1.02;;;0.57;;
24729;SDS011;12832;52.392;13.066;2023-10-31T00:43:53;0.50;;;0.50;;
24729;SDS011;12832;52.392;13.066;2023-10-31T00:46:20;0.32;;;0.32;;
24729;SDS011;12832;52.392;13.066;2023-10-31T00:48:47;0.70;;;0.60;;
24729;SDS011;12832;52.392;13.066;2023-10-31T00:51:14;0.73;;;0.40;;
24729;SDS011;12832;52.392;13.066;2023-10-31T00:53:40;0.60;;;0.40;;
24729;SDS011;12832;52.392;13.066;2023-10-31T00:56:07;0.50;;;0.50;;
24729;SDS011;12832;52.392;13.066;2023-10-31T00:58:34;0.55;;;0.55;;
24729;SDS011;12832;52.392;13.066;2023-10-31T01:01:00;0.50;;;0.50;;
24729;SDS011;12832;52.392;13.066;2023-10-31T01:03:27;0.65;;;0.57;;
24729;SDS011;12832;52.392;13.066;2023-10-31T01:05:54;0.52;;;0.52;;
24729;SDS011;12832;52.392;13.066;2023-10-31T01:08:21;0.30;;;0.30;;
24729;SDS011;12832;52.392;13.066;2023-10-31T01:10:47;0.47;;;0.47;;
24729;SDS011;12832;52.392;13.066;2023-10-31T01:13:14;0.82;;;0.80;;
24729;SDS011;12832;52.392;13.066;2023-10-31T01:15:40;0.70;;;0.60;;
24729;SDS011;12832;52.392;13.066;2023-10-31T01:18:07;0.65;;;0.45;;
24729;SDS011;12832;52.392;13.066;2023-10-31T01:20:33;0.70;;;0.55;;
24729;SDS011;12832;52.392;13.066;2023-10-31T01:23:00;0.47;;;0.47;;
24729;SDS011;12832;52.392;13.066;2023-10-31T01:25:27;0.68;;;0.57;;
24729;SDS011;12832;52.392;13.066;2023-10-31T01:27:53;0.65;;;0.55;;
24729;SDS011;12832;52.392;13.066;2023-10-31T01:30:20;0.43;;;0.40;;
24729;SDS011;12832;52.392;13.066;2023-10-31T01:32:47;1.10;;;0.80;;
24729;SDS011;12832;52.392;13.066;2023-10-31T01:35:13;0.60;;;0.60;;
24729;SDS011;12832;52.392;13.066;2023-10-31T01:37:40;0.80;;;0.65;;
24729;SDS011;12832;52.392;13.066;2023-10-31T01:40:07;0.45;;;0.40;;
24729;SDS011;12832;52.392;13.066;2023-10-31T01:42:33;0.40;;;0.40;;
24729;SDS011;12832;52.392;13.066;2023-10-31T01:45:00;0.47;;;0.40;;
24729;SDS011;12832;52.392;13.066;2023-10-31T01:47:27;0.57;;;0.50;;
24729;SDS011;12832;52.392;13.066;2023-10-31T01:49:53;0.88;;;0.70;;
24729;SDS011;12832;52.392;13.066;2023-10-31T01:52:21;0.40;;;0.38;;
24729;SDS011;12832;52.392;13.066;2023-10-31T01:54:47;0.65;;;0.55;;
24729;SDS011;12832;52.392;13.066;2023-10-31T01:57:14;1.27;;;0.65;;
24729;SDS011;12832;52.392;13.066;2023-10-31T01:59:41;0.40;;;0.40;;
24729;SDS011;12832;52.392;13.066;2023-10-31T02:02:08;0.52;;;0.50;;
24729;SDS011;12832;52.392;13.066;2023-10-31T02:04:34;0.50;;;0.50;;
24729;SDS011;12832;52.392;13.066;2023-10-31T02:07:01;0.52;;;0.45;;
24729;SDS011;12832;52.392;13.066;2023-10-31T02:09:28;0.47;;;0.47;;
24729;SDS011;12832;52.392;13.066;2023-10-31T02:11:55;0.47;;;0.47;;
24729;SDS011;12832;52.392;13.066;2023-10-31T02:14:23;0.50;;;0.38;;
24729;SDS011;12832;52.392;13.066;2023-10-31T02:16:49;0.60;;;0.50;;
24729;SDS011;12832;52.392;13.066;2023-10-31T02:19:20;0.60;;;0.60;;
24729;SDS011;12832;52.392;13.066;2023-10-31T02:21:46;0.40;;;0.40;;
24729;SDS011;12832;52.392;13.066;2023-10-31T02:24:13;0.57;;;0.50;;
24729;SDS011;12832;52.392;13.066;2023-10-31T02:26:40;1.25;;;0.70;;
24729;SDS011;12832;52.392;13.066;2023-10-31T02:29:06;0.60;;;0.60;;
24729;SDS011;12832;52.392;13.066;2023-10-31T02:31:33;0.70;;;0.50;;
24729;SDS011;12832;52.392;13.066;2023-10-31T02:34:00;0.63;;;0.50;;
24729;SDS011;12832;52.392;13.066;2023-10-31T02:36:27;0.60;;;0.50;;
24729;SDS011;12832;52.392;13.066;2023-10-31T02:38:53;0.50;;;0.47;;
24729;SDS011;12832;52.392;13.066;2023-10-31T02:41:20;0.50;;;0.50;;
24729;SDS011;12832;52.392;13.066;2023-10-31T02:43:46;0.40;;;0.40;;
24729;SDS011;12832;52.392;13.066;2023-10-31T02:46:13;0.63;;;0.60;;
24729;SDS011;12832;52.392;13.066;2023-10-31T02:48:41;0.57;;;0.43;;
24729;SDS011;12832;52.392;13.066;2023-10-31T02:51:08;0.90;;;0.60;;
24729;SDS011;12832;52.392;13.066;2023-10-31T02:53:34;0.43;;;0.40;;
24729;SDS011;12832;52.392;13.066;2023-10-31T02:56:01;0.55;;;0.47;;
24729;SDS011;12832;52.392;13.066;2023-10-31T02:58:28;0.57;;;0.50;;
24729;SDS011;12832;52.392;13.066;2023-10-31T03:00:55;1.10;;;0.73;;
24729;SDS011;12832;52.392;13.066;2023-10-31T03:03:22;0.60;;;0.50;;
24729;SDS011;12832;52.392;13.066;2023-10-31T03:05:48;0.60;;;0.40;;
24729;SDS011;12832;52.392;13.066;2023-10-31T03:08:15;0.43;;;0.40;;
24729;SDS011;12832;52.392;13.066;2023-10-31T03:10:47;0.63;;;0.40;;
24729;SDS011;12832;52.392;13.066;2023-10-31T03:13:16;0.45;;;0.40;;
24729;SDS011;12832;52.392;13.066;2023-10-31T03:15:43;0.80;;;0.50;;
24729;SDS011;12832;52.392;13.066;2023-10-31T03:18:09;0.50;;;0.50;;
24729;SDS011;12832;52.392;13.066;2023-10-31T03:20:36;0.40;;;0.40;;
24729;SDS011;12832;52.392;13.066;2023-10-31T03:23:03;0.70;;;0.50;;
24729;SDS011;12832;52.392;13.066;2023-10-31T03:25:29;0.60;;;0.60;;
24729;SDS011;12832;52.392;13.066;2023-10-31T03:27:56;0.55;;;0.50;;
24729;SDS011;12832;52.392;13.066;2023-10-31T03:30:22;0.63;;;0.63;;
24729;SDS011;12832;52.392;13.066;2023-10-31T03:32:49;0.45;;;0.45;;
24729;SDS011;12832;52.392;13.066;2023-10-31T03:35:16;0.70;;;0.52;;
24729;SDS011;12832;52.392;13.066;2023-10-31T03:37:42;0.63;;;0.50;;
24729;SDS011;12832;52.392;13.066;2023-10-31T03:40:09;0.40;;;0.40;;
24729;SDS011;12832;52.392;13.066;2023-10-31T03:42:36;0.47;;;0.47;;
24729;SDS011;12832;52.392;13.066;2023-10-31T03:45:03;0.57;;;0.50;;
24729;SDS011;12832;52.392;13.066;2023-10-31T03:47:29;0.70;;;0.70;;
24729;SDS011;12832;52.392;13.066;2023-10-31T03:49:56;0.57;;;0.57;;
24729;SDS011;12832;52.392;13.066;2023-10-31T03:52:23;0.75;;;0.57;;
24729;SDS011;12832;52.392;13.066;2023-10-31T03:54:50;0.47;;;0.47;;
24729;SDS011;12832;52.392;13.066;2023-10-31T03:57:16;0.40;;;0.40;;
24729;SDS011;12832;52.392;13.066;2023-10-31T03:59:43;0.40;;;0.40;;
24729;SDS011;12832;52.392;13.066;2023-10-31T04:02:10;0.60;;;0.50;;
24729;SDS011;12832;52.392;13.066;2023-10-31T04:04:37;0.68;;;0.57;;
24729;SDS011;12832;52.392;13.066;2023-10-31T04:07:03;1.20;;;0.60;;
24729;SDS011;12832;52.392;13.066;2023-10-31T04:09:30;0.60;;;0.60;;
24729;SDS011;12832;52.392;13.066;2023-10-31T04:11:57;0.50;;;0.50;;
24729;SDS011;12832;52.392;13.066;2023-10-31T04:14:23;0.60;;;0.60;;
24729;SDS011;12832;52.392;13.066;2023-10-31T04:16:50;0.50;;;0.50;;
24729;SDS011;12832;52.392;13.066;2023-10-31T04:19:16;0.40;;;0.40;;
24729;SDS011;12832;52.392;13.066;2023-10-31T04:21:43;0.95;;;0.60;;
24729;SDS011;12832;52.392;13.066;2023-10-31T04:24:09;0.52;;;0.52;;
24729;SDS011;12832;52.392;13.066;2023-10-31T04:26:36;0.40;;;0.40;;
24729;SDS011;12832;52.392;13.066;2023-10-31T04:29:03;0.57;;;0.52;;
24729;SDS011;12832;52.392;13.066;2023-10-31T04:31:29;0.38;;;0.38;;
24729;SDS011;12832;52.392;13.066;2023-10-31T04:34:09;0.50;;;0.50;;
24729;SDS011;12832;52.392;13.066;2023-10-31T04:36:35;0.77;;;0.70;;
24729;SDS011;12832;52.392;13.066;2023-10-31T04:39:02;0.50;;;0.50;;
24729;SDS011;12832;52.392;13.066;2023-10-31T04:41:28;0.77;;;0.55;;
24729;SDS011;12832;52.392;13.066;2023-10-31T04:43:55;0.70;;;0.70;;
24729;SDS011;12832;52.392;13.066;2023-10-31T04:46:22;0.40;;;0.40;;
24729;SDS011;12832;52.392;13.066;2023-10-31T04:48:48;0.45;;;0.45;;
24729;SDS011;12832;52.392;13.066;2023-10-31T04:51:15;0.40;;;0.40;;
24729;SDS011;12832;52.392;13.066;2023-10-31T04:53:41;0.47;;;0.47;;
24729;SDS011;12832;52.392;13.066;2023-10-31T04:56:12;0.47;;;0.47;;
24729;SDS011;12832;52.392;13.066;2023-10-31T04:58:40;0.40;;;0.40;;
24729;SDS011;12832;52.392;13.066;2023-10-31T05:01:10;0.45;;;0.45;;
24729;SDS011;12832;52.392;13.066;2023-10-31T05:03:37;0.40;;;0.40;;
24729;SDS011;12832;52.392;13.066;2023-10-31T05:06:04;0.55;;;0.50;;
24729;SDS011;12832;52.392;13.066;2023-10-31T05:08:31;0.73;;;0.63;;
24729;SDS011;12832;52.392;13.066;2023-10-31T05:10:58;0.38;;;0.38;;
24729;SDS011;12832;52.392;13.066;2023-10-31T05:13:25;0.30;;;0.30;;
24729;SDS011;12832;52.392;13.066;2023-10-31T05:15:51;0.30;;;0.30;;
24729;SDS011;12832;52.392;13.066;2023-10-31T05:18:18;0.38;;;0.32;;
24729;SDS011;12832;52.392;13.066;2023-10-31T05:20:45;0.73;;;0.60;;
24729;SDS011;12832;52.392;13.066;2023-10-31T05:23:11;0.68;;;0.50;;
24729;SDS011;12832;52.392;13.066;2023-10-31T05:25:38;0.40;;;0.40;;
24729;SDS011;12832;52.392;13.066;2023-10-31T05:28:05;0.40;;;0.40;;
24729;SDS011;12832;52.392;13.066;2023-10-31T05:30:31;0.40;;;0.40;;
24729;SDS011;12832;52.392;13.066;2023-10-31T05:32:58;0.40;;;0.40;;
24729;SDS011;12832;52.392;13.066;2023-10-31T05:35:25;0.60;;;0.45;;
24729;SDS011;12832;52.392;13.066;2023-10-31T05:37:52;0.70;;;0.70;;
24729;SDS011;12832;52.392;13.066;2023-10-31T05:40:18;0.40;;;0.40;;
24729;SDS011;12832;52.392;13.066;2023-10-31T05:42:48;0.40;;;0.40;;
24729;SDS011;12832;52.392;13.066;2023-10-31T05:45:15;0.57;;;0.57;;
24729;SDS011;12832;52.392;13.066;2023-10-31T05:47:41;0.32;;;0.32;;
24729;SDS011;12832;52.392;13.066;2023-10-31T05:50:08;0.57;;;0.40;;
24729;SDS011;12832;52.392;13.066;2023-10-31T05:52:35;0.85;;;0.47;;
24729;SDS011;12832;52.392;13.066;2023-10-31T05:55:02;0.50;;;0.40;;
24729;SDS011;12832;52.392;13.066;2023-10-31T05:57:28;0.30;;;0.30;;
24729;SDS011;12832;52.392;13.066;2023-10-31T05:59:55;0.35;;;0.35;;
24729;SDS011;12832;52.392;13.066;2023-10-31T06:02:22;0.30;;;0.30;;
24729;SDS011;12832;52.392;13.066;2023-10-31T06:04:48;0.30;;;0.30;;
24729;SDS011;12832;52.392;13.066;2023-10-31T06:07:15;0.40;;;0.35;;
24729;SDS011;12832;52.392;13.066;2023-10-31T06:09:42;0.30;;;0.28;;
24729;SDS011;12832;52.392;13.066;2023-10-31T06:12:08;0.30;;;0.30;;
24729;SDS011;12832;52.392;13.066;2023-10-31T06:14:35;0.30;;;0.30;;
24729;SDS011;12832;52.392;13.066;2023-10-31T06:17:03;0.30;;;0.30;;
24729;SDS011;12832;52.392;13.066;2023-10-31T06:19:32;0.40;;;0.40;;
24729;SDS011;12832;52.392;13.066;2023-10-31T06:21:59;0.45;;;0.45;;
24729;SDS011;12832;52.392;13.066;2023-10-31T06:24:26;0.28;;;0.28;;
24729;SDS011;12832;52.392;13.066;2023-10-31T06:26:53;0.40;;;0.40;;
24729;SDS011;12832;52.392;13.066;2023-10-31T06:29:19;0.40;;;0.40;;
24729;SDS011;12832;52.392;13.066;2023-10-31T06:32:06;0.40;;;0.40;;
24729;SDS011;12832;52.392;13.066;2023-10-31T06:34:33;0.50;;;0.40;;
24729;SDS011;12832;52.392;13.066;2023-10-31T06:36:59;0.30;;;0.30;;
24729;SDS011;12832;52.392;13.066;2023-10-31T06:39:26;0.20;;;0.20;;
24729;SDS011;12832;52.392;13.066;2023-10-31T06:41:56;0.75;;;0.50;;
24729;SDS011;12832;52.392;13.066;2023-10-31T06:44:22;3.92;;;0.40;;
24729;SDS011;12832;52.392;13.066;2023-10-31T06:46:49;0.20;;;0.20;;
24729;SDS011;12832;52.392;13.066;2023-10-31T06:49:15;0.40;;;0.40;;
24729;SDS011;12832;52.392;13.066;2023-10-31T06:51:42;0.40;;;0.40;;
24729;SDS011;12832;52.392;13.066;2023-10-31T06:54:09;0.50;;;0.40;;
24729;SDS011;12832;52.392;13.066;2023-10-31T06:56:35;0.40;;;0.30;;
24729;SDS011;12832;52.392;13.066;2023-10-31T06:59:02;0.60;;;0.57;;
24729;SDS011;12832;52.392;13.066;2023-10-31T07:01:29;0.65;;;0.47;;
24729;SDS011;12832;52.392;13.066;2023-10-31T07:03:55;0.40;;;0.40;;
24729;SDS011;12832;52.392;13.066;2023-10-31T07:06:22;0.47;;;0.38;;
24729;SDS011;12832;52.392;13.066;2023-10-31T07:08:49;0.40;;;0.30;;
24729;SDS011;12832;52.392;13.066;2023-10-31T07:11:15;0.43;;;0.43;;
24729;SDS011;12832;52.392;13.066;2023-10-31T07:13:42;0.30;;;0.28;;
24729;SDS011;12832;52.392;13.066;2023-10-31T07:16:09;0.43;;;0.40;;
24729;SDS011;12832;52.392;13.066;2023-10-31T07:18:36;0.30;;;0.30;;
24729;SDS011;12832;52.392;13.066;2023-10-31T07:21:03;0.80;;;0.52;;
24729;SDS011;12832;52.392;13.066;2023-10-31T07:23:29;0.30;;;0.30;;
24729;SDS011;12832;52.392;13.066;2023-10-31T07:25:56;0.32;;;0.30;;
24729;SDS011;12832;52.392;13.066;2023-10-31T07:28:23;0.40;;;0.30;;
24729;SDS011;12832;52.392;13.066;2023-10-31T07:30:50;0.35;;;0.35;;
24729;SDS011;12832;52.392;13.066;2023-10-31T07:33:16;0.50;;;0.40;;
24729;SDS011;12832;52.392;13.066;2023-10-31T07:35:43;0.28;;;0.20;;
24729;SDS011;12832;52.392;13.066;2023-10-31T07:38:10;0.30;;;0.30;;
24729;SDS011;12832;52.392;13.066;2023-10-31T07:40:36;0.30;;;0.30;;
24729;SDS011;12832;52.392;13.066;2023-10-31T07:43:03;0.30;;;0.30;;
24729;SDS011;12832;52.392;13.066;2023-10-31T07:45:29;0.30;;;0.30;;
24729;SDS011;12832;52.392;13.066;2023-10-31T07:47:56;0.50;;;0.50;;
24729;SDS011;12832;52.392;13.066;2023-10-31T07:50:23;0.68;;;0.40;;
24729;SDS011;12832;52.392;13.066;2023-10-31T07:52:49;0.20;;;0.20;;
24729;SDS011;12832;52.392;13.066;2023-10-31T07:55:16;0.35;;;0.32;;
24729;SDS011;12832;52.392;13.066;2023-10-31T07:57:43;1.05;;;0.50;;
24729;SDS011;12832;52.392;13.066;2023-10-31T08:00:10;0.40;;;0.40;;
24729;SDS011;12832;52.392;13.066;2023-10-31T08:02:37;0.30;;;0.30;;
24729;SDS011;12832;52.392;13.066;2023-10-31T08:05:04;0.17;;;0.17;;
24729;SDS011;12832;52.392;13.066;2023-10-31T08:07:31;0.30;;;0.30;;
24729;SDS011;12832;52.392;13.066;2023-10-31T08:09:57;0.35;;;0.30;;
24729;SDS011;12832;52.392;13.066;2023-10-31T08:12:24;0.30;;;0.30;;
24729;SDS011;12832;52.392;13.066;2023-10-31T08:14:50;0.20;;;0.20;;
24729;SDS011;12832;52.392;13.066;2023-10-31T08:17:19;0.50;;;0.35;;
24729;SDS011;12832;52.392;13.066;2023-10-31T08:19:46;0.20;;;0.20;;
24729;SDS011;12832;52.392;13.066;2023-10-31T08:22:13;0.30;;;0.30;;
24729;SDS011;12832;52.392;13.066;2023-10-31T08:24:39;0.20;;;0.20;;
24729;SDS011;12832;52.392;13.066;2023-10-31T08:27:06;0.20;;;0.20;;
24729;SDS011;12832;52.392;13.066;2023-10-31T08:29:33;0.47;;;0.20;;
24729;SDS011;12832;52.392;13.066;2023-10-31T08:31:59;0.40;;;0.30;;
24729;SDS011;12832;52.392;13.066;2023-10-31T08:34:26;0.30;;;0.20;;
24729;SDS011;12832;52.392;13.066;2023-10-31T08:36:53;0.25;;;0.25;;
24729;SDS011;12832;52.392;13.066;2023-10-31T08:39:22;0.50;;;0.25;;
24729;SDS011;12832;52.392;13.066;2023-10-31T08:41:54;0.28;;;0.20;;
24729;SDS011;12832;52.392;13.066;2023-10-31T08:44:21;0.30;;;0.20;;
24729;SDS011;12832;52.392;13.066;2023-10-31T08:46:48;0.20;;;0.20;;
24729;SDS011;12832;52.392;13.066;2023-10-31T08:49:15;0.28;;;0.28;;
24729;SDS011;12832;52.392;13.066;2023-10-31T08:51:42;0.73;;;0.40;;
24729;SDS011;12832;52.392;13.066;2023-10-31T08:54:08;0.47;;;0.20;;
24729;SDS011;12832;52.392;13.066;2023-10-31T08:56:35;0.20;;;0.20;;
24729;SDS011;12832;52.392;13.066;2023-10-31T08:59:02;0.15;;;0.15;;
24729;SDS011;12832;52.392;13.066;2023-10-31T09:01:29;0.30;;;0.30;;
24729;SDS011;12832;52.392;13.066;2023-10-31T09:03:55;0.20;;;0.20;;
24729;SDS011;12832;52.392;13.066;2023-10-31T09:06:24;0.60;;;0.20;;
24729;SDS011;12832;52.392;13.066;2023-10-31T09:08:50;0.28;;;0.20;;
24729;SDS011;12832;52.392;13.066;2023-10-31T09:11:17;0.20;;;0.20;;
24729;SDS011;12832;52.392;13.066;2023-10-31T09:13:44;0.20;;;0.20;;
24729;SDS011;12832;52.392;13.066;2023-10-31T09:16:11;0.43;;;0.10;;
24729;SDS011;12832;52.392;13.066;2023-10-31T09:18:39;0.13;;;0.13;;
24729;SDS011;12832;52.392;13.066;2023-10-31T09:21:07;0.30;;;0.30;;
24729;SDS011;12832;52.392;13.066;2023-10-31T09:23:33;0.30;;;0.30;;
24729;SDS011;12832;52.392;13.066;2023-10-31T09:26:00;0.17;;;0.17;;
24729;SDS011;12832;52.392;13.066;2023-10-31T09:28:26;0.10;;;0.10;;
24729;SDS011;12832;52.392;13.066;2023-10-31T09:30:53;0.10;;;0.10;;
24729;SDS011;12832;52.392;13.066;2023-10-31T09:33:20;0.10;;;0.10;;
24729;SDS011;12832;52.392;13.066;2023-10-31T09:35:47;0.45;;;0.30;;
24729;SDS011;12832;52.392;13.066;2023-10-31T09:38:13;0.10;;;0.10;;
24729;SDS011;12832;52.392;13.066;2023-10-31T09:40:40;0.55;;;0.20;;
24729;SDS011;12832;52.392;13.066;2023-10-31T09:43:07;0.10;;;0.10;;
24729;SDS011;12832;52.392;13.066;2023-10-31T09:45:34;0.20;;;0.20;;
24729;SDS011;12832;52.392;13.066;2023-10-31T09:48:00;0.20;;;0.20;;
24729;SDS011;12832;52.392;13.066;2023-10-31T09:50:30;0.25;;;0.10;;
24729;SDS011;12832;52.392;13.066;2023-10-31T09:52:57;0.20;;;0.10;;
24729;SDS011;12832;52.392;13.066;2023-10-31T09:55:24;1.67;;;0.20;;
24729;SDS011;12832;52.392;13.066;2023-10-31T09:57:51;0.20;;;0.20;;
24729;SDS011;12832;52.392;13.066;2023-10-31T10:00:18;0.10;;;0.10;;
24729;SDS011;12832;52.392;13.066;2023-10-31T10:02:45;0.30;;;0.30;;
24729;SDS011;12832;52.392;13.066;2023-10-31T10:05:11;0.10;;;0.10;;
24729;SDS011;12832;52.392;13.066;2023-10-31T10:07:41;0.10;;;0.10;;
24729;SDS011;12832;52.392;13.066;2023-10-31T10:10:12;0.20;;;0.20;;
24729;SDS011;12832;52.392;13.066;2023-10-31T10:12:41;0.30;;;0.20;;
24729;SDS011;12832;52.392;13.066;2023-10-31T10:15:08;0.20;;;0.20;;
24729;SDS011;12832;52.392;13.066;2023-10-31T10:17:36;0.20;;;0.20;;
24729;SDS011;12832;52.392;13.066;2023-10-31T10:22:32;0.63;;;0.20;;
24729;SDS011;12832;52.392;13.066;2023-10-31T10:24:58;0.20;;;0.20;;
24729;SDS011;12832;52.392;13.066;2023-10-31T10:27:25;0.20;;;0.20;;
24729;SDS011;12832;52.392;13.066;2023-10-31T10:29:52;0.47;;;0.30;;
24729;SDS011;12832;52.392;13.066;2023-10-31T10:32:20;0.10;;;0.10;;
24729;SDS011;12832;52.392;13.066;2023-10-31T10:34:46;1.40;;;0.28;;
24729;SDS011;12832;52.392;13.066;2023-10-31T10:37:13;0.20;;;0.20;;
24729;SDS011;12832;52.392;13.066;2023-10-31T10:39:39;0.30;;;0.30;;
24729;SDS011;12832;52.392;13.066;2023-10-31T10:42:09;0.13;;;0.13;;
24729;SDS011;12832;52.392;13.066;2023-10-31T10:44:38;0.22;;;0.22;;
24729;SDS011;12832;52.392;13.066;2023-10-31T10:47:08;0.20;;;0.20;;
24729;SDS011;12832;52.392;13.066;2023-10-31T10:49:35;0.57;;;0.30;;
24729;SDS011;12832;52.392;13.066;2023-10-31T10:54:37;0.45;;;0.28;;
24729;SDS011;12832;52.392;13.066;2023-10-31T10:59:40;0.20;;;0.20;;
24729;SDS011;12832;52.392;13.066;2023-10-31T11:02:07;0.40;;;0.28;;
24729;SDS011;12832;52.392;13.066;2023-10-31T11:04:36;0.20;;;0.20;;
24729;SDS011;12832;52.392;13.066;2023-10-31T11:07:03;0.22;;;0.22;;
24729;SDS011;12832;52.392;13.066;2023-10-31T11:09:31;0.30;;;0.30;;
24729;SDS011;12832;52.392;13.066;2023-10-31T11:11:58;0.35;;;0.30;;
24729;SDS011;12832;52.392;13.066;2023-10-31T11:14:25;0.28;;;0.20;;
24729;SDS011;12832;52.392;13.066;2023-10-31T11:16:52;0.38;;;0.30;;
24729;SDS011;12832;52.392;13.066;2023-10-31T11:19:19;0.40;;;0.30;;
24729;SDS011;12832;52.392;13.066;2023-10-31T11:22:00;0.28;;;0.25;;
24729;SDS011;12832;52.392;13.066;2023-10-31T11:24:28;0.30;;;0.30;;
24729;SDS011;12832;52.392;13.066;2023-10-31T11:26:58;0.20;;;0.20;;
24729;SDS011;12832;52.392;13.066;2023-10-31T11:29:25;0.40;;;0.35;;
24729;SDS011;12832;52.392;13.066;2023-10-31T11:31:53;0.20;;;0.20;;
24729;SDS011;12832;52.392;13.066;2023-10-31T11:34:21;0.38;;;0.30;;
24729;SDS011;12832;52.392;13.066;2023-10-31T11:36:47;0.30;;;0.30;;
24729;SDS011;12832;52.392;13.066;2023-10-31T11:39:14;0.30;;;0.30;;
24729;SDS011;12832;52.392;13.066;2023-10-31T11:41:45;0.22;;;0.22;;
24729;SDS011;12832;52.392;13.066;2023-10-31T11:44:12;0.32;;;0.30;;
24729;SDS011;12832;52.392;13.066;2023-10-31T11:46:38;1.27;;;0.50;;
24729;SDS011;12832;52.392;13.066;2023-10-31T11:49:06;0.50;;;0.30;;
24729;SDS011;12832;52.392;13.066;2023-10-31T11:51:33;0.32;;;0.30;;
24729;SDS011;12832;52.392;13.066;2023-10-31T11:54:03;0.25;;;0.22;;
24729;SDS011;12832;52.392;13.066;2023-10-31T11:56:34;0.60;;;0.30;;
24729;SDS011;12832;52.392;13.066;2023-10-31T11:59:01;0.30;;;0.30;;
24729;SDS011;12832;52.392;13.066;2023-10-31T12:01:28;0.43;;;0.25;;
24729;SDS011;12832;52.392;13.066;2023-10-31T12:03:55;0.20;;;0.20;;
24729;SDS011;12832;52.392;13.066;2023-10-31T12:06:22;0.30;;;0.20;;
24729;SDS011;12832;52.392;13.066;2023-10-31T12:08:49;0.17;;;0.15;;
24729;SDS011;12832;52.392;13.066;2023-10-31T12:11:19;0.20;;;0.20;;
24729;SDS011;12832;52.392;13.066;2023-10-31T12:16:22;0.57;;;0.20;;
24729;SDS011;12832;52.392;13.066;2023-10-31T12:21:44;0.30;;;0.30;;
24729;SDS011;12832;52.392;13.066;2023-10-31T12:24:11;1.55;;;0.28;;
24729;SDS011;12832;52.392;13.066;2023-10-31T12:26:38;0.20;;;0.20;;
24729;SDS011;12832;52.392;13.066;2023-10-31T12:29:17;0.25;;;0.20;;
24729;SDS011;12832;52.392;13.066;2023-10-31T12:31:49;0.28;;;0.28;;
24729;SDS011;12832;52.392;13.066;2023-10-31T12:34:18;0.20;;;0.20;;
24729;SDS011;12832;52.392;13.066;2023-10-31T12:36:46;0.20;;;0.20;;
24729;SDS011;12832;52.392;13.066;2023-10-31T12:39:12;0.20;;;0.20;;
24729;SDS011;12832;52.392;13.066;2023-10-31T12:41:40;0.20;;;0.20;;
24729;SDS011;12832;52.392;13.066;2023-10-31T12:44:07;0.20;;;0.20;;
24729;SDS011;12832;52.392;13.066;2023-10-31T12:46:38;0.47;;;0.30;;
24729;SDS011;12832;52.392;13.066;2023-10-31T12:49:10;0.50;;;0.35;;
24729;SDS011;12832;52.392;13.066;2023-10-31T12:51:37;0.60;;;0.45;;
24729;SDS011;12832;52.392;13.066;2023-10-31T12:54:03;0.45;;;0.30;;
24729;SDS011;12832;52.392;13.066;2023-10-31T12:56:40;0.40;;;0.40;;
24729;SDS011;12832;52.392;13.066;2023-10-31T12:59:07;0.30;;;0.30;;
24729;SDS011;12832;52.392;13.066;2023-10-31T13:01:35;0.38;;;0.38;;
24729;SDS011;12832;52.392;13.066;2023-10-31T13:04:03;0.38;;;0.38;;
24729;SDS011;12832;52.392;13.066;2023-10-31T13:06:29;0.50;;;0.40;;
24729;SDS011;12832;52.392;13.066;2023-10-31T13:08:56;0.68;;;0.50;;
24729;SDS011;12832;52.392;13.066;2023-10-31T13:11:23;0.80;;;0.47;;
24729;SDS011;12832;52.392;13.066;2023-10-31T13:13:53;0.60;;;0.50;;
24729;SDS011;12832;52.392;13.066;2023-10-31T13:16:20;0.43;;;0.40;;
24729;SDS011;12832;52.392;13.066;2023-10-31T13:18:46;0.50;;;0.45;;
24729;SDS011;12832;52.392;13.066;2023-10-31T13:21:13;0.40;;;0.40;;
24729;SDS011;12832;52.392;13.066;2023-10-31T13:23:41;0.30;;;0.22;;
24729;SDS011;12832;52.392;13.066;2023-10-31T13:26:14;0.40;;;0.30;;
24729;SDS011;12832;52.392;13.066;2023-10-31T13:28:40;0.40;;;0.30;;
24729;SDS011;12832;52.392;13.066;2023-10-31T13:31:08;0.38;;;0.32;;
24729;SDS011;12832;52.392;13.066;2023-10-31T13:33:36;0.30;;;0.30;;
24729;SDS011;12832;52.392;13.066;2023-10-31T13:36:03;0.30;;;0.30;;
24729;SDS011;12832;52.392;13.066;2023-10-31T13:38:30;0.30;;;0.30;;
24729;SDS011;12832;52.392;13.066;2023-10-31T13:40:57;0.20;;;0.20;;
24729;SDS011;12832;52.392;13.066;2023-10-31T13:43:23;0.25;;;0.20;;
24729;SDS011;12832;52.392;13.066;2023-10-31T13:45:50;1.95;;;0.22;;
24729;SDS011;12832;52.392;13.066;2023-10-31T13:48:17;0.40;;;0.30;;
24729;SDS011;12832;52.392;13.066;2023-10-31T13:50:44;0.38;;;0.30;;
24729;SDS011;12832;52.392;13.066;2023-10-31T13:53:11;0.38;;;0.30;;
24729;SDS011;12832;52.392;13.066;2023-10-31T13:55:38;0.40;;;0.30;;
24729;SDS011;12832;52.392;13.066;2023-10-31T13:58:05;0.13;;;0.13;;
24729;SDS011;12832;52.392;13.066;2023-10-31T14:00:31;0.25;;;0.25;;
24729;SDS011;12832;52.392;13.066;2023-10-31T14:02:58;0.20;;;0.20;;
24729;SDS011;12832;52.392;13.066;2023-10-31T14:05:25;0.13;;;0.13;;
24729;SDS011;12832;52.392;13.066;2023-10-31T14:07:52;0.20;;;0.20;;
24729;SDS011;12832;52.392;13.066;2023-10-31T14:10:19;0.20;;;0.17;;
24729;SDS011;12832;52.392;13.066;2023-10-31T14:12:46;0.20;;;0.20;;
24729;SDS011;12832;52.392;13.066;2023-10-31T14:15:13;0.20;;;0.20;;
24729;SDS011;12832;52.392;13.066;2023-10-31T14:17:40;0.20;;;0.20;;
24729;SDS011;12832;52.392;13.066;2023-10-31T14:20:07;0.20;;;0.20;;
24729;SDS011;12832;52.392;13.066;2023-10-31T14:22:33;0.15;;;0.13;;
24729;SDS011;12832;52.392;13.066;2023-10-31T14:25:00;0.95;;;0.20;;
24729;SDS011;12832;52.392;13.066;2023-10-31T14:27:30;0.30;;;0.20;;
24729;SDS011;12832;52.392;13.066;2023-10-31T14:29:56;0.10;;;0.10;;
24729;SDS011;12832;52.392;13.066;2023-10-31T14:32:23;0.50;;;0.20;;
24729;SDS011;12832;52.392;13.066;2023-10-31T14:34:50;0.20;;;0.20;;
24729;SDS011;12832;52.392;13.066;2023-10-31T14:37:16;0.68;;;0.35;;
24729;SDS011;12832;52.392;13.066;2023-10-31T14:39:43;0.10;;;0.10;;
24729;SDS011;12832;52.392;13.066;2023-10-31T14:42:10;0.20;;;0.20;;
24729;SDS011;12832;52.392;13.066;2023-10-31T14:44:37;0.25;;;0.20;;
24729;SDS011;12832;52.392;13.066;2023-10-31T14:47:03;0.30;;;0.20;;